createdAt,value
2022-12-15T00:00:41.837Z,57.21070234113712
2022-12-15T00:07:04.378Z,56.31103678929766
2022-12-15T00:13:25.299Z,57.44481605351171
2022-12-15T00:19:46.729Z,56.49832775919732
2022-12-15T00:33:36.299Z,55.61538461538461
2022-12-15T00:44:54.843Z,56.54849498327759
2022-12-15T00:51:16.429Z,55.74916387959866
2022-12-15T01:03:27.423Z,54.49498327759197
2022-12-15T01:09:47.738Z,54.94314381270903
2022-12-15T01:16:09.463Z,55.28428093645485
2022-12-15T01:22:29.886Z,54.17391304347826
2022-12-15T01:28:50.909Z,55.49498327759197
2022-12-15T01:35:10.610Z,55.35117056856188
2022-12-15T01:44:36.625Z,54.438127090301
2022-12-15T01:50:59.004Z,56.063545150501675
2022-12-15T01:57:19.679Z,55.09364548494983
2022-12-15T02:17:40.169Z,54.48494983277592
2022-12-15T02:24:52.912Z,54.979933110367895
2022-12-15T02:31:13.373Z,51.46488294314381
2022-12-15T02:38:47.336Z,53.468227424749166
2022-12-15T02:52:11.678Z,53.474916387959865
2022-12-15T03:02:55.199Z,53.97658862876254
2022-12-15T03:09:14.601Z,53.56521739130435
2022-12-15T03:17:09.099Z,53.187290969899664
2022-12-15T03:26:48.469Z,51.46488294314381
2022-12-15T03:42:24.957Z,52.72909698996656
2022-12-15T03:48:51.434Z,50.68561872909699
2022-12-15T03:59:53.723Z,49.331103678929765
2022-12-15T04:06:16.517Z,50.22742474916388
2022-12-15T04:12:37.034Z,50.42809364548495
2022-12-15T04:18:58.467Z,51.36120401337793
2022-12-15T04:42:32.247Z,49.84615384615385
2022-12-15T04:48:51.867Z,48.11371237458194
2022-12-15T04:55:13.487Z,50.25083612040134
2022-12-15T05:04:17.472Z,48.67892976588629
2022-12-15T05:10:42.419Z,50.42140468227425
2022-12-15T05:18:27.281Z,49.94314381270903
2022-12-15T05:24:47.612Z,49.869565217391305
2022-12-15T05:42:56.321Z,49.03678929765886
2022-12-15T05:57:04.218Z,50.7056856187291
2022-12-15T06:03:27.244Z,50.65886287625418
2022-12-15T06:09:49.481Z,49.05351170568562
2022-12-15T06:16:09.862Z,49.046822742474916
2022-12-15T06:29:20.843Z,50.95986622073578
2022-12-15T06:35:42.284Z,49.48494983277592
2022-12-15T06:42:03.432Z,49.71571906354515
2022-12-15T06:53:04.524Z,48.42140468227425
2022-12-15T07:01:58.524Z,50.11705685618729
2022-12-15T07:13:42.361Z,49.123745819397996
2022-12-15T07:23:54.699Z,47.03344481605351
2022-12-15T07:30:18.414Z,47.17056856187291
2022-12-15T07:44:37.338Z,47.46153846153846
2022-12-15T07:51:07.542Z,46.240802675585286
2022-12-15T07:57:30.727Z,45.531772575250834
2022-12-15T08:03:53.258Z,47.46153846153846
2022-12-15T08:15:36.221Z,44.986622073578594
2022-12-15T08:33:44.938Z,44.35117056856188
2022-12-15T08:41:38.807Z,44.57190635451505
2022-12-15T08:48:00.794Z,42.48160535117057
2022-12-15T08:54:22.000Z,42.65551839464883
2022-12-15T09:02:14.707Z,43.65217391304348
2022-12-15T09:08:36.160Z,41.759197324414714
2022-12-15T09:22:27.077Z,41.88628762541806
2022-12-15T09:39:39.755Z,39.441471571906355
2022-12-15T09:46:00.753Z,39.49498327759197
2022-12-15T09:58:34.958Z,40.1438127090301
2022-12-15T10:04:56.858Z,38.33779264214047
2022-12-15T10:11:18.150Z,39.87959866220736
2022-12-15T10:17:44.890Z,42.575250836120404
2022-12-15T10:26:41.055Z,39.63879598662207
2022-12-15T10:38:50.868Z,38.60535117056856
2022-12-15T10:45:12.371Z,38.44481605351171
2022-12-15T10:56:41.915Z,38.10033444816054
2022-12-15T11:03:03.224Z,38.59866220735786
2022-12-15T11:09:24.343Z,37.448160535117054
2022-12-15T11:19:28.399Z,36.27090301003344
2022-12-15T11:25:50.782Z,36.929765886287626
2022-12-15T11:32:12.960Z,39.31103678929766
2022-12-15T11:41:16.483Z,38.51170568561873
2022-12-15T11:47:38.814Z,35.93979933110368
2022-12-15T11:54:00.930Z,37.54849498327759
2022-12-15T12:00:23.162Z,36.896321070234116
2022-12-15T12:06:44.542Z,36.0066889632107
2022-12-15T12:13:54.004Z,36.608695652173914
2022-12-15T12:20:16.801Z,33.73913043478261
2022-12-15T12:26:38.469Z,34.22408026755853
2022-12-15T12:33:00.247Z,35.85953177257525
2022-12-15T12:39:22.210Z,37.23076923076923
2022-12-15T12:45:55.085Z,36.852842809364546
2022-12-15T12:52:17.098Z,37.020066889632105
2022-12-15T12:58:38.822Z,36.531772575250834
2022-12-15T13:05:00.352Z,36.67224080267559
2022-12-15T13:17:26.726Z,37.51839464882943
2022-12-15T13:23:50.484Z,37.2675585284281
2022-12-15T13:30:11.621Z,39.4180602006689
2022-12-15T13:36:33.061Z,38.27090301003344
2022-12-15T13:42:58.172Z,37.09030100334448
2022-12-15T13:49:20.872Z,37.15719063545151
2022-12-15T13:55:44.740Z,36.62207357859532
2022-12-15T14:02:08.408Z,36.12040133779264
2022-12-15T14:08:30.659Z,37.52173913043478
2022-12-15T14:14:53.270Z,37.953177257525084
2022-12-15T14:21:15.527Z,37.280936454849495
2022-12-15T14:27:38.674Z,36.93979933110368
2022-12-15T14:36:04.075Z,39.35117056856188
2022-12-15T14:42:26.213Z,39.95986622073578
2022-12-15T14:48:48.401Z,41.05351170568562
2022-12-15T14:55:11.374Z,40.43478260869565
2022-12-15T15:01:34.385Z,41.68896321070234
2022-12-15T15:13:00.179Z,42.5685618729097
2022-12-15T15:28:14.355Z,43.33444816053512
2022-12-15T15:34:33.815Z,46.280936454849495
2022-12-15T15:45:23.067Z,46.364548494983275
2022-12-15T15:53:26.902Z,48.0066889632107
2022-12-15T15:59:48.581Z,47.625418060200666
2022-12-15T16:10:01.025Z,47.65551839464883
2022-12-15T16:16:29.525Z,48.525083612040135
2022-12-15T16:22:51.422Z,50.070234113712374
2022-12-15T16:29:12.249Z,51.779264214046826
2022-12-15T16:35:34.123Z,52.31103678929766
2022-12-15T16:41:55.829Z,57.44481605351171
2022-12-15T16:48:21.923Z,57.78929765886288
2022-12-15T16:59:44.423Z,57.74581939799331
2022-12-15T17:06:06.563Z,57.72909698996656
2022-12-15T17:16:00.791Z,56.4314381270903
2022-12-15T17:22:23.286Z,58.80602006688963
2022-12-15T17:28:44.745Z,57.69565217391305
2022-12-15T17:35:06.039Z,60.31438127090301
2022-12-15T17:43:35.376Z,60.22408026755853
2022-12-15T18:00:21.333Z,61.096989966555185
2022-12-15T18:06:42.622Z,62.12709030100334
2022-12-15T18:13:02.457Z,63.802675585284284
2022-12-15T18:19:23.178Z,64.97324414715719
2022-12-15T18:26:04.080Z,65.81939799331104
2022-12-15T18:33:22.199Z,65.8561872909699
2022-12-15T18:45:20.235Z,66.14715719063545
2022-12-15T18:51:39.335Z,65.38127090301003
2022-12-15T19:00:23.394Z,62.719063545150505
2022-12-15T19:06:44.780Z,62.64548494983278
2022-12-15T19:14:46.739Z,63.41137123745819
2022-12-15T19:33:21.327Z,61.137123745819395
2022-12-15T19:51:53.816Z,65.99665551839465
2022-12-15T19:58:15.594Z,66.50167224080268
2022-12-15T20:04:38.700Z,67.52173913043478
2022-12-15T20:11:03.918Z,67.22742474916387
2022-12-15T20:25:56.674Z,62.725752508361204
2022-12-15T20:37:21.864Z,63.22742474916388
2022-12-15T20:52:28.146Z,62.32107023411371
2022-12-15T20:58:52.019Z,65.83277591973244
2022-12-15T21:16:31.462Z,75.70568561872909
2022-12-15T21:22:55.573Z,67.92307692307692
2022-12-15T21:30:05.605Z,66.82943143812709
2022-12-15T21:36:29.642Z,76.06688963210702
2022-12-15T21:54:51.133Z,72.94314381270902
2022-12-15T22:01:13.295Z,75.30434782608695
2022-12-15T22:11:40.400Z,64.21070234113712
2022-12-15T22:22:48.530Z,59.10702341137124
2022-12-15T22:29:10.892Z,57.34448160535117
2022-12-15T22:35:32.700Z,61.38795986622073
2022-12-15T22:41:54.245Z,63.09364548494983
2022-12-15T22:48:14.802Z,61.953177257525084
2022-12-15T22:59:49.553Z,64.3076923076923
2022-12-15T23:06:11.735Z,58.04013377926422
2022-12-15T23:12:33.555Z,58.123745819397996
2022-12-15T23:18:54.771Z,62.438127090301
2022-12-15T23:25:15.991Z,61.71571906354515
2022-12-15T23:49:30.384Z,60.7123745819398
2022-12-15T23:55:52.352Z,58.01003344481605
